Campbells Crossroads, Alabama
Current Conditions -  °F | °C
As of 12:53 PM on Monday 20 Oct 2014 (Local Time) from KANB Reporting Station
Few Clouds Few Clouds  
Wind Chill: 71°   Ceiling: Unl
Heat Index: 71°   Visibility: 10mi
Dew Point: 50°   Wind: 6mph
Humidity: 47%   Direction: NA
Pressure: 30.05"   Gusts: NA
Location:  33.3533°N, 85.7343°W
Report Text: KANB 201753Z AUTO VRB05KT 10SM FEW043 22/10 A3005 RMK AO2 SLP175 T02170100 10217 20078 58023
Loading
Personal Weather Stations






























Interactive Weather Map
Tropical Storm Tracking
New forecast layout! Learn more

10-Day Weather Forecast

Advertisements
Track Severe Weather on mobile